AGROMETEOROLOŠKI PORTAL

vinorodna pokrajina

Temelj dobrega kmetovanja

Pregled podatkov za lokacijo Moste pri Komendi DRSI, meteorološka postaja 170

Pregled senzorjev na lokaciji

ID Ime Zadnja
vrednost
Datum in čas
meritve
(lokalni čas)
Tip
senzorja
6239 Zračni tlak (hPa) 979 hPa 30.9.2022 12:00 DRSI
6236 Relativna zračna vlaga (2 m) (% RH) 93 % RH 30.9.2022 12:00 DRSI
6235 Temperatura (2 m) (°C) 15,3 °C 30.9.2022 12:00 DRSI
6238 Smer vetra (2 m) (°) 180 ° 30.9.2022 12:00 DRSI
6237 Hitrost vetra (2 m) (km/h) 3 km/h 30.9.2022 12:00 DRSI

Pregled podatkov zadnjih 24 ur

Zap.
št.
Datum in čas
(lokalni čas)
Moste pri Komendi DRSI
Zračni
tlak
Relativna
zračna
vlaga
(2
m)
Temperatura
(2
m)
Smer
vetra
(2
m)
Hitrost
vetra
(2
m)
1 30.9.2022 12:00 978,7 93,3 15,3 180 2,6
2 30.9.2022 11:30 978,7 94,7 15,3 202 1
3 30.9.2022 11:00 978,7 98 15 0
4 30.9.2022 10:30 979,3 99,7 14,3 180 1
5 30.9.2022 10:00 979,6 100 13,3 292 0,4
6 30.9.2022 09:30 979,6 100 13 180 1
7 30.9.2022 09:00 979,6 100 12,3 202,5 1,7
8 30.9.2022 08:30 979 100 11,7 292 0,4
9 30.9.2022 08:00 978,7 100 11,3 270 0,4
10 30.9.2022 07:30 978,4 100 11 225 1
11 30.9.2022 07:00 978,4 100 11 2,6
12 30.9.2022 06:30 978 100 11 1
13 30.9.2022 06:00 977,7 100 11 303,5 1,3
14 30.9.2022 05:30 977,4 100 11 1
15 30.9.2022 05:00 977,1 100 11 180 1,7
16 30.9.2022 04:30 976,8 100 11 0
17 30.9.2022 04:00 976,8 100 11 0
18 30.9.2022 03:30 976,4 100 11 0,4
19 30.9.2022 03:00 976,8 100 11 225 0,4
20 30.9.2022 02:30 976,4 100 11 202 0,4
21 30.9.2022 02:00 976,4 100 11 22 5,3
22 30.9.2022 01:30 975,8 100 11 180 1,3
23 30.9.2022 01:00 975,8 100 11 202 0,4
24 30.9.2022 00:30 975,8 100 11 292 0,4
25 30.9.2022 00:00 975,8 100 11 202 1,9
26 29.9.2022 23:30 975,8 100 11 0
27 29.9.2022 23:00 975,8 100 11 0
28 29.9.2022 22:30 975,8 100 11 315 0,4
29 29.9.2022 22:00 975,8 100 11 112 0,4
30 29.9.2022 21:30 975,8 100 11 202 0,4
31 29.9.2022 21:00 975,8 100 11 0
32 29.9.2022 20:30 975,8 100 11 0
33 29.9.2022 20:00 975,8 100 11 135 2
34 29.9.2022 19:30 975,2 100 10,7 194,7 4,3
35 29.9.2022 19:00 974,8 100 11 202 3,2
36 29.9.2022 18:30 974,8 100 11 236 2,3
37 29.9.2022 18:00 974,8 100 11 191 1,3
38 29.9.2022 17:30 974,8 100 11 236 2,6
39 29.9.2022 17:00 974,5 100 11 191 0,7
40 29.9.2022 16:30 974,2 100 11 191 3,4
41 29.9.2022 16:00 974,2 100 11 180 3
42 29.9.2022 15:30 973,9 100 11 168,5 4,3
43 29.9.2022 15:00 973,9 100 11 180 4,9
44 29.9.2022 14:30 973,9 100 11 191 7,9
45 29.9.2022 14:00 973,9 100 11 168,5 5,3